sensor_id;sensor_type;location;lat;lon;timestamp;P1;durP1;ratioP1;P2;durP2;ratioP2
26113;SDS011;13966;48.828;9.064;2024-01-25T00:01:15;19.35;;;3.78;;
26113;SDS011;13966;48.828;9.064;2024-01-25T00:03:41;27.92;;;5.18;;
26113;SDS011;13966;48.828;9.064;2024-01-25T00:06:07;16.98;;;3.88;;
26113;SDS011;13966;48.828;9.064;2024-01-25T00:08:34;28.33;;;4.93;;
26113;SDS011;13966;48.828;9.064;2024-01-25T00:11:03;21.55;;;4.47;;
26113;SDS011;13966;48.828;9.064;2024-01-25T00:13:29;27.35;;;4.50;;
26113;SDS011;13966;48.828;9.064;2024-01-25T00:15:55;25.80;;;4.85;;
26113;SDS011;13966;48.828;9.064;2024-01-25T00:18:21;20.88;;;4.13;;
26113;SDS011;13966;48.828;9.064;2024-01-25T00:20:47;25.55;;;5.65;;
26113;SDS011;13966;48.828;9.064;2024-01-25T00:23:14;28.27;;;4.43;;
26113;SDS011;13966;48.828;9.064;2024-01-25T00:25:39;16.83;;;3.88;;
26113;SDS011;13966;48.828;9.064;2024-01-25T00:28:05;21.73;;;4.68;;
26113;SDS011;13966;48.828;9.064;2024-01-25T00:30:31;26.52;;;4.80;;
26113;SDS011;13966;48.828;9.064;2024-01-25T00:32:57;26.00;;;5.35;;
26113;SDS011;13966;48.828;9.064;2024-01-25T00:35:24;20.25;;;4.40;;
26113;SDS011;13966;48.828;9.064;2024-01-25T00:37:50;24.05;;;4.65;;
26113;SDS011;13966;48.828;9.064;2024-01-25T00:40:16;30.17;;;5.00;;
26113;SDS011;13966;48.828;9.064;2024-01-25T00:42:44;34.00;;;6.00;;
26113;SDS011;13966;48.828;9.064;2024-01-25T00:45:10;25.70;;;5.28;;
26113;SDS011;13966;48.828;9.064;2024-01-25T00:47:37;23.55;;;4.97;;
26113;SDS011;13966;48.828;9.064;2024-01-25T00:50:03;32.22;;;5.95;;
26113;SDS011;13966;48.828;9.064;2024-01-25T00:52:29;26.58;;;5.05;;
26113;SDS011;13966;48.828;9.064;2024-01-25T00:54:55;26.80;;;4.43;;
26113;SDS011;13966;48.828;9.064;2024-01-25T00:57:22;20.23;;;4.03;;
26113;SDS011;13966;48.828;9.064;2024-01-25T00:59:48;26.83;;;4.15;;
26113;SDS011;13966;48.828;9.064;2024-01-25T01:02:14;31.77;;;5.60;;
26113;SDS011;13966;48.828;9.064;2024-01-25T01:04:40;22.33;;;4.53;;
26113;SDS011;13966;48.828;9.064;2024-01-25T01:07:06;32.97;;;5.55;;
26113;SDS011;13966;48.828;9.064;2024-01-25T01:09:33;19.40;;;4.80;;
26113;SDS011;13966;48.828;9.064;2024-01-25T01:11:59;27.05;;;5.20;;
26113;SDS011;13966;48.828;9.064;2024-01-25T01:14:24;25.55;;;4.82;;
26113;SDS011;13966;48.828;9.064;2024-01-25T01:16:50;23.33;;;4.38;;
26113;SDS011;13966;48.828;9.064;2024-01-25T01:19:17;35.38;;;4.80;;
26113;SDS011;13966;48.828;9.064;2024-01-25T01:21:43;28.42;;;4.55;;
26113;SDS011;13966;48.828;9.064;2024-01-25T01:24:12;26.10;;;4.75;;
26113;SDS011;13966;48.828;9.064;2024-01-25T01:26:38;28.48;;;4.43;;
26113;SDS011;13966;48.828;9.064;2024-01-25T01:29:06;32.05;;;4.97;;
26113;SDS011;13966;48.828;9.064;2024-01-25T01:31:33;21.30;;;4.30;;
26113;SDS011;13966;48.828;9.064;2024-01-25T01:33:59;24.40;;;4.35;;
26113;SDS011;13966;48.828;9.064;2024-01-25T01:36:25;22.98;;;4.07;;
26113;SDS011;13966;48.828;9.064;2024-01-25T01:38:51;28.48;;;5.20;;
26113;SDS011;13966;48.828;9.064;2024-01-25T01:41:17;24.00;;;4.85;;
26113;SDS011;13966;48.828;9.064;2024-01-25T01:43:43;23.25;;;4.18;;
26113;SDS011;13966;48.828;9.064;2024-01-25T01:46:10;25.13;;;4.50;;
26113;SDS011;13966;48.828;9.064;2024-01-25T01:48:38;22.55;;;4.35;;
26113;SDS011;13966;48.828;9.064;2024-01-25T01:51:05;21.10;;;3.83;;
26113;SDS011;13966;48.828;9.064;2024-01-25T01:53:32;24.15;;;3.85;;
26113;SDS011;13966;48.828;9.064;2024-01-25T01:55:58;23.70;;;4.05;;
26113;SDS011;13966;48.828;9.064;2024-01-25T01:58:24;21.52;;;4.70;;
26113;SDS011;13966;48.828;9.064;2024-01-25T02:00:51;21.80;;;4.18;;
26113;SDS011;13966;48.828;9.064;2024-01-25T02:03:18;26.10;;;4.72;;
26113;SDS011;13966;48.828;9.064;2024-01-25T02:05:44;24.63;;;4.28;;
26113;SDS011;13966;48.828;9.064;2024-01-25T02:08:11;23.42;;;4.18;;
26113;SDS011;13966;48.828;9.064;2024-01-25T02:10:37;23.48;;;4.97;;
26113;SDS011;13966;48.828;9.064;2024-01-25T02:13:03;21.45;;;3.38;;
26113;SDS011;13966;48.828;9.064;2024-01-25T02:15:29;23.98;;;4.47;;
26113;SDS011;13966;48.828;9.064;2024-01-25T02:17:55;20.83;;;4.05;;
26113;SDS011;13966;48.828;9.064;2024-01-25T02:20:21;25.58;;;4.35;;
26113;SDS011;13966;48.828;9.064;2024-01-25T02:22:47;18.33;;;4.13;;
26113;SDS011;13966;48.828;9.064;2024-01-25T02:25:14;22.85;;;4.28;;
26113;SDS011;13966;48.828;9.064;2024-01-25T02:27:39;18.83;;;4.18;;
26113;SDS011;13966;48.828;9.064;2024-01-25T02:30:06;22.30;;;4.20;;
26113;SDS011;13966;48.828;9.064;2024-01-25T02:32:32;19.35;;;3.38;;
26113;SDS011;13966;48.828;9.064;2024-01-25T02:34:58;23.50;;;3.97;;
26113;SDS011;13966;48.828;9.064;2024-01-25T02:37:24;23.92;;;4.25;;
26113;SDS011;13966;48.828;9.064;2024-01-25T02:39:50;24.83;;;3.92;;
26113;SDS011;13966;48.828;9.064;2024-01-25T02:42:16;26.08;;;5.25;;
26113;SDS011;13966;48.828;9.064;2024-01-25T02:44:43;20.85;;;4.18;;
26113;SDS011;13966;48.828;9.064;2024-01-25T02:47:09;24.38;;;4.00;;
26113;SDS011;13966;48.828;9.064;2024-01-25T02:49:35;18.23;;;3.75;;
26113;SDS011;13966;48.828;9.064;2024-01-25T02:52:01;20.40;;;3.80;;
26113;SDS011;13966;48.828;9.064;2024-01-25T02:54:27;17.73;;;3.90;;
26113;SDS011;13966;48.828;9.064;2024-01-25T02:56:53;30.70;;;5.70;;
26113;SDS011;13966;48.828;9.064;2024-01-25T02:59:19;22.15;;;4.35;;
26113;SDS011;13966;48.828;9.064;2024-01-25T03:01:45;27.17;;;4.18;;
26113;SDS011;13966;48.828;9.064;2024-01-25T03:04:12;33.35;;;4.75;;
26113;SDS011;13966;48.828;9.064;2024-01-25T03:06:38;20.27;;;3.67;;
26113;SDS011;13966;48.828;9.064;2024-01-25T03:09:04;23.40;;;4.28;;
26113;SDS011;13966;48.828;9.064;2024-01-25T03:11:30;27.65;;;4.50;;
26113;SDS011;13966;48.828;9.064;2024-01-25T03:13:56;28.17;;;5.10;;
26113;SDS011;13966;48.828;9.064;2024-01-25T03:16:22;24.90;;;4.35;;
26113;SDS011;13966;48.828;9.064;2024-01-25T03:18:48;29.85;;;4.53;;
26113;SDS011;13966;48.828;9.064;2024-01-25T03:21:14;20.80;;;4.22;;
26113;SDS011;13966;48.828;9.064;2024-01-25T03:23:40;24.25;;;4.28;;
26113;SDS011;13966;48.828;9.064;2024-01-25T03:26:06;24.40;;;4.38;;
26113;SDS011;13966;48.828;9.064;2024-01-25T03:28:34;21.08;;;4.60;;
26113;SDS011;13966;48.828;9.064;2024-01-25T03:31:01;20.90;;;4.32;;
26113;SDS011;13966;48.828;9.064;2024-01-25T03:33:27;25.17;;;4.50;;
26113;SDS011;13966;48.828;9.064;2024-01-25T03:35:53;22.25;;;4.57;;
26113;SDS011;13966;48.828;9.064;2024-01-25T03:38:20;24.80;;;3.90;;
26113;SDS011;13966;48.828;9.064;2024-01-25T03:40:45;28.73;;;4.68;;
26113;SDS011;13966;48.828;9.064;2024-01-25T03:43:12;24.88;;;4.57;;
26113;SDS011;13966;48.828;9.064;2024-01-25T03:45:38;23.05;;;4.22;;
26113;SDS011;13966;48.828;9.064;2024-01-25T03:48:04;26.73;;;4.10;;
26113;SDS011;13966;48.828;9.064;2024-01-25T03:50:30;26.20;;;4.55;;
26113;SDS011;13966;48.828;9.064;2024-01-25T03:52:56;20.25;;;3.85;;
26113;SDS011;13966;48.828;9.064;2024-01-25T03:55:22;23.30;;;4.22;;
26113;SDS011;13966;48.828;9.064;2024-01-25T03:57:48;27.67;;;5.15;;
26113;SDS011;13966;48.828;9.064;2024-01-25T04:00:14;24.33;;;4.22;;
26113;SDS011;13966;48.828;9.064;2024-01-25T04:02:40;24.30;;;4.28;;
26113;SDS011;13966;48.828;9.064;2024-01-25T04:05:06;20.88;;;4.35;;
26113;SDS011;13966;48.828;9.064;2024-01-25T04:07:32;23.85;;;4.35;;
26113;SDS011;13966;48.828;9.064;2024-01-25T04:09:58;27.77;;;4.70;;
26113;SDS011;13966;48.828;9.064;2024-01-25T04:12:24;27.48;;;3.92;;
26113;SDS011;13966;48.828;9.064;2024-01-25T04:14:50;24.95;;;4.18;;
26113;SDS011;13966;48.828;9.064;2024-01-25T04:17:16;28.35;;;4.38;;
26113;SDS011;13966;48.828;9.064;2024-01-25T04:19:42;24.33;;;4.35;;
26113;SDS011;13966;48.828;9.064;2024-01-25T04:22:08;24.63;;;4.05;;
26113;SDS011;13966;48.828;9.064;2024-01-25T04:24:34;22.02;;;4.53;;
26113;SDS011;13966;48.828;9.064;2024-01-25T04:27:00;30.65;;;4.50;;
26113;SDS011;13966;48.828;9.064;2024-01-25T04:29:26;24.85;;;4.90;;
26113;SDS011;13966;48.828;9.064;2024-01-25T04:31:52;25.08;;;4.57;;
26113;SDS011;13966;48.828;9.064;2024-01-25T04:34:18;29.35;;;5.00;;
26113;SDS011;13966;48.828;9.064;2024-01-25T04:36:44;24.10;;;4.55;;
26113;SDS011;13966;48.828;9.064;2024-01-25T04:39:10;26.88;;;4.40;;
26113;SDS011;13966;48.828;9.064;2024-01-25T04:41:36;28.77;;;4.50;;
26113;SDS011;13966;48.828;9.064;2024-01-25T04:44:02;20.52;;;4.35;;
26113;SDS011;13966;48.828;9.064;2024-01-25T04:46:29;29.05;;;4.93;;
26113;SDS011;13966;48.828;9.064;2024-01-25T04:49:00;22.20;;;4.10;;
26113;SDS011;13966;48.828;9.064;2024-01-25T04:51:26;30.67;;;4.82;;
26113;SDS011;13966;48.828;9.064;2024-01-25T04:53:53;25.17;;;4.88;;
26113;SDS011;13966;48.828;9.064;2024-01-25T04:56:19;24.60;;;4.40;;
26113;SDS011;13966;48.828;9.064;2024-01-25T04:58:44;23.75;;;4.88;;
26113;SDS011;13966;48.828;9.064;2024-01-25T05:01:11;26.10;;;4.85;;
26113;SDS011;13966;48.828;9.064;2024-01-25T05:03:37;20.40;;;4.38;;
26113;SDS011;13966;48.828;9.064;2024-01-25T05:06:03;28.63;;;5.15;;
26113;SDS011;13966;48.828;9.064;2024-01-25T05:08:29;22.77;;;4.13;;
26113;SDS011;13966;48.828;9.064;2024-01-25T05:10:55;28.67;;;4.65;;
26113;SDS011;13966;48.828;9.064;2024-01-25T05:13:22;18.20;;;3.60;;
26113;SDS011;13966;48.828;9.064;2024-01-25T05:15:47;29.17;;;4.65;;
26113;SDS011;13966;48.828;9.064;2024-01-25T05:18:13;26.20;;;4.85;;
26113;SDS011;13966;48.828;9.064;2024-01-25T05:20:39;21.08;;;4.93;;
26113;SDS011;13966;48.828;9.064;2024-01-25T05:23:05;26.20;;;4.63;;
26113;SDS011;13966;48.828;9.064;2024-01-25T05:25:32;19.33;;;4.03;;
26113;SDS011;13966;48.828;9.064;2024-01-25T05:27:58;25.77;;;4.80;;
26113;SDS011;13966;48.828;9.064;2024-01-25T05:30:24;25.88;;;4.97;;
26113;SDS011;13966;48.828;9.064;2024-01-25T05:32:50;30.73;;;5.03;;
26113;SDS011;13966;48.828;9.064;2024-01-25T05:35:18;19.13;;;4.43;;
26113;SDS011;13966;48.828;9.064;2024-01-25T05:37:44;30.33;;;4.70;;
26113;SDS011;13966;48.828;9.064;2024-01-25T05:40:11;25.35;;;5.22;;
26113;SDS011;13966;48.828;9.064;2024-01-25T05:42:37;24.23;;;4.32;;
26113;SDS011;13966;48.828;9.064;2024-01-25T05:45:03;30.02;;;5.60;;
26113;SDS011;13966;48.828;9.064;2024-01-25T05:47:30;27.48;;;5.57;;
26113;SDS011;13966;48.828;9.064;2024-01-25T05:49:56;22.85;;;4.85;;
26113;SDS011;13966;48.828;9.064;2024-01-25T05:52:22;27.88;;;5.93;;
26113;SDS011;13966;48.828;9.064;2024-01-25T05:54:49;24.88;;;4.68;;
26113;SDS011;13966;48.828;9.064;2024-01-25T05:57:15;27.52;;;4.53;;
26113;SDS011;13966;48.828;9.064;2024-01-25T05:59:42;27.13;;;4.88;;
26113;SDS011;13966;48.828;9.064;2024-01-25T06:02:08;35.40;;;5.63;;
26113;SDS011;13966;48.828;9.064;2024-01-25T06:04:34;22.90;;;4.60;;
26113;SDS011;13966;48.828;9.064;2024-01-25T06:07:00;27.17;;;5.57;;
26113;SDS011;13966;48.828;9.064;2024-01-25T06:09:26;28.48;;;4.72;;
26113;SDS011;13966;48.828;9.064;2024-01-25T06:11:52;26.10;;;5.35;;
26113;SDS011;13966;48.828;9.064;2024-01-25T06:14:19;25.92;;;5.13;;
26113;SDS011;13966;48.828;9.064;2024-01-25T06:16:45;25.38;;;5.38;;
26113;SDS011;13966;48.828;9.064;2024-01-25T06:19:11;27.55;;;5.05;;
26113;SDS011;13966;48.828;9.064;2024-01-25T06:21:37;22.17;;;4.07;;
26113;SDS011;13966;48.828;9.064;2024-01-25T06:24:03;23.42;;;4.05;;
26113;SDS011;13966;48.828;9.064;2024-01-25T06:26:29;20.30;;;3.95;;
26113;SDS011;13966;48.828;9.064;2024-01-25T06:28:56;29.70;;;4.97;;
26113;SDS011;13966;48.828;9.064;2024-01-25T06:31:22;36.88;;;4.90;;
26113;SDS011;13966;48.828;9.064;2024-01-25T06:33:48;27.67;;;5.05;;
26113;SDS011;13966;48.828;9.064;2024-01-25T06:36:15;31.85;;;5.22;;
26113;SDS011;13966;48.828;9.064;2024-01-25T06:38:41;22.38;;;4.82;;
26113;SDS011;13966;48.828;9.064;2024-01-25T06:41:08;24.20;;;5.63;;
26113;SDS011;13966;48.828;9.064;2024-01-25T06:43:34;29.00;;;5.80;;
26113;SDS011;13966;48.828;9.064;2024-01-25T06:46:00;30.65;;;6.47;;
26113;SDS011;13966;48.828;9.064;2024-01-25T06:48:26;32.17;;;6.07;;
26113;SDS011;13966;48.828;9.064;2024-01-25T06:50:52;37.63;;;6.00;;
26113;SDS011;13966;48.828;9.064;2024-01-25T06:53:19;24.58;;;5.38;;
26113;SDS011;13966;48.828;9.064;2024-01-25T06:55:45;33.90;;;6.72;;
26113;SDS011;13966;48.828;9.064;2024-01-25T06:58:11;30.35;;;5.07;;
26113;SDS011;13966;48.828;9.064;2024-01-25T07:00:38;37.60;;;6.80;;
26113;SDS011;13966;48.828;9.064;2024-01-25T07:03:04;29.38;;;5.43;;
26113;SDS011;13966;48.828;9.064;2024-01-25T07:05:30;26.88;;;5.07;;
26113;SDS011;13966;48.828;9.064;2024-01-25T07:07:59;24.58;;;4.85;;
26113;SDS011;13966;48.828;9.064;2024-01-25T07:10:25;34.33;;;6.20;;
26113;SDS011;13966;48.828;9.064;2024-01-25T07:12:51;30.65;;;4.70;;
26113;SDS011;13966;48.828;9.064;2024-01-25T07:15:18;25.70;;;4.75;;
26113;SDS011;13966;48.828;9.064;2024-01-25T07:17:44;24.52;;;4.72;;
26113;SDS011;13966;48.828;9.064;2024-01-25T07:20:10;27.92;;;4.55;;
26113;SDS011;13966;48.828;9.064;2024-01-25T07:22:37;30.05;;;5.50;;
26113;SDS011;13966;48.828;9.064;2024-01-25T07:25:03;30.48;;;5.32;;
26113;SDS011;13966;48.828;9.064;2024-01-25T07:27:29;24.23;;;4.65;;
26113;SDS011;13966;48.828;9.064;2024-01-25T07:29:55;27.45;;;5.60;;
26113;SDS011;13966;48.828;9.064;2024-01-25T07:32:21;21.98;;;4.53;;
26113;SDS011;13966;48.828;9.064;2024-01-25T07:34:49;23.52;;;5.18;;
26113;SDS011;13966;48.828;9.064;2024-01-25T07:37:15;24.73;;;5.18;;
26113;SDS011;13966;48.828;9.064;2024-01-25T07:39:43;23.00;;;5.03;;
26113;SDS011;13966;48.828;9.064;2024-01-25T07:42:09;25.27;;;5.25;;
26113;SDS011;13966;48.828;9.064;2024-01-25T07:44:36;22.63;;;5.07;;
26113;SDS011;13966;48.828;9.064;2024-01-25T07:47:02;27.35;;;5.25;;
26113;SDS011;13966;48.828;9.064;2024-01-25T07:49:28;23.63;;;4.97;;
26113;SDS011;13966;48.828;9.064;2024-01-25T07:51:55;25.42;;;5.43;;
26113;SDS011;13966;48.828;9.064;2024-01-25T07:54:21;25.67;;;5.22;;
26113;SDS011;13966;48.828;9.064;2024-01-25T07:56:47;24.70;;;5.75;;
26113;SDS011;13966;48.828;9.064;2024-01-25T07:59:13;26.08;;;5.13;;
26113;SDS011;13966;48.828;9.064;2024-01-25T08:01:39;28.17;;;5.35;;
26113;SDS011;13966;48.828;9.064;2024-01-25T08:04:05;35.33;;;6.00;;
26113;SDS011;13966;48.828;9.064;2024-01-25T08:06:32;24.23;;;4.90;;
26113;SDS011;13966;48.828;9.064;2024-01-25T08:08:58;27.50;;;6.53;;
26113;SDS011;13966;48.828;9.064;2024-01-25T08:11:24;25.30;;;5.43;;
26113;SDS011;13966;48.828;9.064;2024-01-25T08:13:50;27.23;;;5.45;;
26113;SDS011;13966;48.828;9.064;2024-01-25T08:16:16;27.30;;;4.90;;
26113;SDS011;13966;48.828;9.064;2024-01-25T08:18:48;22.13;;;4.22;;
26113;SDS011;13966;48.828;9.064;2024-01-25T08:21:14;34.80;;;5.05;;
26113;SDS011;13966;48.828;9.064;2024-01-25T08:23:41;26.83;;;5.07;;
26113;SDS011;13966;48.828;9.064;2024-01-25T08:26:07;24.77;;;5.07;;
26113;SDS011;13966;48.828;9.064;2024-01-25T08:28:35;24.35;;;4.88;;
26113;SDS011;13966;48.828;9.064;2024-01-25T08:31:01;22.55;;;4.60;;
26113;SDS011;13966;48.828;9.064;2024-01-25T08:33:27;26.73;;;4.75;;
26113;SDS011;13966;48.828;9.064;2024-01-25T08:35:53;24.00;;;4.78;;
26113;SDS011;13966;48.828;9.064;2024-01-25T08:38:19;25.75;;;4.30;;
26113;SDS011;13966;48.828;9.064;2024-01-25T08:40:45;20.73;;;4.60;;
26113;SDS011;13966;48.828;9.064;2024-01-25T08:43:11;26.38;;;4.95;;
26113;SDS011;13966;48.828;9.064;2024-01-25T08:45:37;24.13;;;4.55;;
26113;SDS011;13966;48.828;9.064;2024-01-25T08:48:03;28.40;;;4.93;;
26113;SDS011;13966;48.828;9.064;2024-01-25T08:50:30;22.00;;;5.40;;
26113;SDS011;13966;48.828;9.064;2024-01-25T08:52:56;31.17;;;4.85;;
26113;SDS011;13966;48.828;9.064;2024-01-25T08:55:22;26.67;;;4.65;;
26113;SDS011;13966;48.828;9.064;2024-01-25T08:57:49;25.42;;;4.97;;
26113;SDS011;13966;48.828;9.064;2024-01-25T09:00:15;19.95;;;4.30;;
26113;SDS011;13966;48.828;9.064;2024-01-25T09:02:42;24.15;;;4.88;;
26113;SDS011;13966;48.828;9.064;2024-01-25T09:05:08;27.67;;;5.03;;
26113;SDS011;13966;48.828;9.064;2024-01-25T09:07:34;29.00;;;4.15;;
26113;SDS011;13966;48.828;9.064;2024-01-25T09:10:01;29.25;;;4.53;;
26113;SDS011;13966;48.828;9.064;2024-01-25T09:12:27;27.25;;;4.35;;
26113;SDS011;13966;48.828;9.064;2024-01-25T09:14:53;24.52;;;4.63;;
26113;SDS011;13966;48.828;9.064;2024-01-25T09:17:19;21.95;;;4.03;;
26113;SDS011;13966;48.828;9.064;2024-01-25T09:19:50;24.75;;;4.82;;
26113;SDS011;13966;48.828;9.064;2024-01-25T09:22:16;19.95;;;4.75;;
26113;SDS011;13966;48.828;9.064;2024-01-25T09:24:44;23.45;;;3.65;;
26113;SDS011;13966;48.828;9.064;2024-01-25T09:27:10;19.83;;;4.00;;
26113;SDS011;13966;48.828;9.064;2024-01-25T09:29:38;20.80;;;4.45;;
26113;SDS011;13966;48.828;9.064;2024-01-25T09:32:05;29.42;;;4.63;;
26113;SDS011;13966;48.828;9.064;2024-01-25T09:34:32;35.03;;;4.47;;
26113;SDS011;13966;48.828;9.064;2024-01-25T09:36:58;29.33;;;5.10;;
26113;SDS011;13966;48.828;9.064;2024-01-25T09:39:24;20.60;;;4.05;;
26113;SDS011;13966;48.828;9.064;2024-01-25T09:41:50;21.70;;;4.30;;
26113;SDS011;13966;48.828;9.064;2024-01-25T09:44:16;21.90;;;4.55;;
26113;SDS011;13966;48.828;9.064;2024-01-25T09:46:42;24.63;;;4.45;;
26113;SDS011;13966;48.828;9.064;2024-01-25T09:49:09;23.77;;;4.28;;
26113;SDS011;13966;48.828;9.064;2024-01-25T09:51:36;19.60;;;4.63;;
26113;SDS011;13966;48.828;9.064;2024-01-25T09:54:06;26.33;;;4.65;;
26113;SDS011;13966;48.828;9.064;2024-01-25T09:56:32;23.65;;;4.15;;
26113;SDS011;13966;48.828;9.064;2024-01-25T09:58:59;18.20;;;3.58;;
26113;SDS011;13966;48.828;9.064;2024-01-25T10:01:25;22.65;;;3.83;;
26113;SDS011;13966;48.828;9.064;2024-01-25T10:03:51;22.10;;;4.13;;
26113;SDS011;13966;48.828;9.064;2024-01-25T10:06:17;23.75;;;3.97;;
26113;SDS011;13966;48.828;9.064;2024-01-25T10:08:44;21.83;;;4.30;;
26113;SDS011;13966;48.828;9.064;2024-01-25T10:11:10;20.90;;;3.80;;
26113;SDS011;13966;48.828;9.064;2024-01-25T10:13:54;22.38;;;4.20;;
26113;SDS011;13966;48.828;9.064;2024-01-25T10:16:22;18.45;;;3.70;;
26113;SDS011;13966;48.828;9.064;2024-01-25T10:18:48;26.98;;;7.95;;
26113;SDS011;13966;48.828;9.064;2024-01-25T10:21:14;31.63;;;7.28;;
26113;SDS011;13966;48.828;9.064;2024-01-25T10:23:43;20.80;;;4.72;;
26113;SDS011;13966;48.828;9.064;2024-01-25T10:26:10;18.45;;;3.92;;
26113;SDS011;13966;48.828;9.064;2024-01-25T10:28:36;32.03;;;4.47;;
26113;SDS011;13966;48.828;9.064;2024-01-25T10:31:03;26.27;;;4.30;;
26113;SDS011;13966;48.828;9.064;2024-01-25T10:33:29;21.67;;;3.63;;
26113;SDS011;13966;48.828;9.064;2024-01-25T10:35:59;21.17;;;4.15;;
26113;SDS011;13966;48.828;9.064;2024-01-25T10:38:30;22.92;;;4.25;;
26113;SDS011;13966;48.828;9.064;2024-01-25T10:40:59;23.80;;;4.97;;
26113;SDS011;13966;48.828;9.064;2024-01-25T10:43:26;21.15;;;3.88;;
26113;SDS011;13966;48.828;9.064;2024-01-25T10:45:52;17.33;;;3.40;;
26113;SDS011;13966;48.828;9.064;2024-01-25T10:48:20;19.05;;;4.15;;
26113;SDS011;13966;48.828;9.064;2024-01-25T10:50:47;19.90;;;3.63;;
26113;SDS011;13966;48.828;9.064;2024-01-25T10:53:14;21.80;;;3.90;;
26113;SDS011;13966;48.828;9.064;2024-01-25T10:55:41;17.80;;;3.63;;
26113;SDS011;13966;48.828;9.064;2024-01-25T10:58:07;19.50;;;3.65;;
26113;SDS011;13966;48.828;9.064;2024-01-25T11:00:36;18.52;;;3.25;;
26113;SDS011;13966;48.828;9.064;2024-01-25T11:03:02;19.65;;;3.83;;
26113;SDS011;13966;48.828;9.064;2024-01-25T11:05:28;14.15;;;3.00;;
26113;SDS011;13966;48.828;9.064;2024-01-25T11:07:54;13.68;;;3.30;;
26113;SDS011;13966;48.828;9.064;2024-01-25T11:10:21;11.35;;;2.80;;
26113;SDS011;13966;48.828;9.064;2024-01-25T11:15:20;12.07;;;3.22;;
26113;SDS011;13966;48.828;9.064;2024-01-25T11:17:53;14.00;;;3.30;;
26113;SDS011;13966;48.828;9.064;2024-01-25T11:20:26;13.27;;;3.00;;
26113;SDS011;13966;48.828;9.064;2024-01-25T11:22:56;11.65;;;2.78;;
26113;SDS011;13966;48.828;9.064;2024-01-25T11:25:24;13.65;;;3.00;;
26113;SDS011;13966;48.828;9.064;2024-01-25T11:27:52;14.48;;;3.42;;
26113;SDS011;13966;48.828;9.064;2024-01-25T11:30:19;13.35;;;2.88;;
26113;SDS011;13966;48.828;9.064;2024-01-25T11:32:48;10.18;;;2.75;;
26113;SDS011;13966;48.828;9.064;2024-01-25T11:35:14;10.77;;;2.67;;
26113;SDS011;13966;48.828;9.064;2024-01-25T11:37:44;11.10;;;3.17;;
26113;SDS011;13966;48.828;9.064;2024-01-25T11:40:10;9.25;;;2.60;;
26113;SDS011;13966;48.828;9.064;2024-01-25T11:42:36;13.02;;;2.90;;
26113;SDS011;13966;48.828;9.064;2024-01-25T11:45:03;11.05;;;2.45;;
26113;SDS011;13966;48.828;9.064;2024-01-25T11:47:29;8.70;;;2.55;;
26113;SDS011;13966;48.828;9.064;2024-01-25T11:49:55;10.25;;;2.50;;
26113;SDS011;13966;48.828;9.064;2024-01-25T11:52:21;10.93;;;3.05;;
26113;SDS011;13966;48.828;9.064;2024-01-25T11:54:47;8.27;;;2.75;;
26113;SDS011;13966;48.828;9.064;2024-01-25T11:57:13;11.98;;;2.70;;
26113;SDS011;13966;48.828;9.064;2024-01-25T11:59:39;11.30;;;2.47;;
26113;SDS011;13966;48.828;9.064;2024-01-25T12:02:05;12.40;;;2.53;;
26113;SDS011;13966;48.828;9.064;2024-01-25T12:04:31;10.50;;;2.55;;
26113;SDS011;13966;48.828;9.064;2024-01-25T12:06:57;10.20;;;2.67;;
26113;SDS011;13966;48.828;9.064;2024-01-25T12:09:23;9.05;;;1.98;;
26113;SDS011;13966;48.828;9.064;2024-01-25T12:11:49;12.07;;;2.30;;
26113;SDS011;13966;48.828;9.064;2024-01-25T12:14:16;7.28;;;1.98;;
26113;SDS011;13966;48.828;9.064;2024-01-25T12:16:42;8.95;;;2.72;;
26113;SDS011;13966;48.828;9.064;2024-01-25T12:19:08;9.65;;;2.33;;
26113;SDS011;13966;48.828;9.064;2024-01-25T12:21:34;9.80;;;2.90;;
26113;SDS011;13966;48.828;9.064;2024-01-25T12:24:01;10.70;;;2.80;;
26113;SDS011;13966;48.828;9.064;2024-01-25T12:26:27;8.52;;;2.95;;
26113;SDS011;13966;48.828;9.064;2024-01-25T12:28:53;12.35;;;3.33;;
26113;SDS011;13966;48.828;9.064;2024-01-25T12:31:19;9.80;;;3.05;;
26113;SDS011;13966;48.828;9.064;2024-01-25T12:33:45;9.70;;;2.63;;
26113;SDS011;13966;48.828;9.064;2024-01-25T12:36:11;9.43;;;2.80;;
26113;SDS011;13966;48.828;9.064;2024-01-25T12:38:37;11.50;;;3.10;;
26113;SDS011;13966;48.828;9.064;2024-01-25T12:41:04;8.80;;;2.67;;
26113;SDS011;13966;48.828;9.064;2024-01-25T12:43:30;9.40;;;2.63;;
26113;SDS011;13966;48.828;9.064;2024-01-25T12:45:56;8.80;;;3.13;;
26113;SDS011;13966;48.828;9.064;2024-01-25T12:48:22;7.15;;;2.45;;
26113;SDS011;13966;48.828;9.064;2024-01-25T12:50:48;6.80;;;2.67;;
26113;SDS011;13966;48.828;9.064;2024-01-25T12:53:14;9.77;;;2.42;;
26113;SDS011;13966;48.828;9.064;2024-01-25T12:55:40;8.50;;;2.60;;
26113;SDS011;13966;48.828;9.064;2024-01-25T12:58:06;10.35;;;3.00;;
26113;SDS011;13966;48.828;9.064;2024-01-25T13:00:32;7.82;;;2.53;;
26113;SDS011;13966;48.828;9.064;2024-01-25T13:02:58;11.60;;;2.70;;
26113;SDS011;13966;48.828;9.064;2024-01-25T13:05:26;13.50;;;2.83;;
26113;SDS011;13966;48.828;9.064;2024-01-25T13:07:52;8.27;;;2.78;;
26113;SDS011;13966;48.828;9.064;2024-01-25T13:10:18;12.02;;;2.78;;
26113;SDS011;13966;48.828;9.064;2024-01-25T13:12:44;10.98;;;3.00;;
26113;SDS011;13966;48.828;9.064;2024-01-25T13:15:10;7.75;;;2.25;;
26113;SDS011;13966;48.828;9.064;2024-01-25T13:17:37;10.35;;;2.50;;
26113;SDS011;13966;48.828;9.064;2024-01-25T13:20:03;8.93;;;2.40;;
26113;SDS011;13966;48.828;9.064;2024-01-25T13:22:31;7.55;;;2.28;;
26113;SDS011;13966;48.828;9.064;2024-01-25T13:24:58;7.57;;;2.38;;
26113;SDS011;13966;48.828;9.064;2024-01-25T13:27:25;7.30;;;2.42;;
26113;SDS011;13966;48.828;9.064;2024-01-25T13:29:51;7.10;;;2.40;;
26113;SDS011;13966;48.828;9.064;2024-01-25T13:32:17;7.03;;;2.50;;
26113;SDS011;13966;48.828;9.064;2024-01-25T13:34:43;7.93;;;2.67;;
26113;SDS011;13966;48.828;9.064;2024-01-25T13:37:09;6.80;;;2.05;;
26113;SDS011;13966;48.828;9.064;2024-01-25T13:39:35;6.15;;;2.30;;
26113;SDS011;13966;48.828;9.064;2024-01-25T13:42:01;9.55;;;2.90;;
26113;SDS011;13966;48.828;9.064;2024-01-25T13:44:27;7.60;;;2.63;;
26113;SDS011;13966;48.828;9.064;2024-01-25T13:46:53;8.52;;;2.03;;
26113;SDS011;13966;48.828;9.064;2024-01-25T13:49:21;7.50;;;2.15;;
26113;SDS011;13966;48.828;9.064;2024-01-25T13:51:47;10.20;;;3.05;;
26113;SDS011;13966;48.828;9.064;2024-01-25T13:54:13;8.77;;;2.00;;
26113;SDS011;13966;48.828;9.064;2024-01-25T13:56:39;9.05;;;2.53;;
26113;SDS011;13966;48.828;9.064;2024-01-25T13:59:05;11.00;;;2.67;;
26113;SDS011;13966;48.828;9.064;2024-01-25T14:01:31;10.27;;;2.70;;
26113;SDS011;13966;48.828;9.064;2024-01-25T14:03:57;14.68;;;3.60;;
26113;SDS011;13966;48.828;9.064;2024-01-25T14:06:23;8.38;;;2.50;;
26113;SDS011;13966;48.828;9.064;2024-01-25T14:08:49;7.47;;;2.60;;
26113;SDS011;13966;48.828;9.064;2024-01-25T14:11:16;8.80;;;2.25;;
26113;SDS011;13966;48.828;9.064;2024-01-25T14:13:42;10.60;;;2.42;;
26113;SDS011;13966;48.828;9.064;2024-01-25T14:16:08;7.63;;;2.50;;
26113;SDS011;13966;48.828;9.064;2024-01-25T14:18:38;9.77;;;2.83;;
26113;SDS011;13966;48.828;9.064;2024-01-25T14:21:05;12.57;;;4.68;;
26113;SDS011;13966;48.828;9.064;2024-01-25T14:23:31;9.80;;;2.88;;
26113;SDS011;13966;48.828;9.064;2024-01-25T14:25:57;9.77;;;2.58;;
26113;SDS011;13966;48.828;9.064;2024-01-25T14:28:23;10.18;;;2.80;;
26113;SDS011;13966;48.828;9.064;2024-01-25T14:30:49;11.00;;;2.75;;
26113;SDS011;13966;48.828;9.064;2024-01-25T14:33:15;6.50;;;2.53;;